createdAt,value
2022-12-19T00:02:03.695Z,101743.75
2022-12-19T00:07:06.457Z,101731.59
2022-12-19T00:12:17.415Z,101727.13
2022-12-19T00:17:23.856Z,101706.38
2022-12-19T00:22:26.700Z,101755.94
2022-12-19T00:27:29.303Z,101748.00
2022-12-19T00:32:33.660Z,101732.88
2022-12-19T00:37:36.294Z,101702.44
2022-12-19T00:42:40.964Z,101705.88
2022-12-19T00:47:45.867Z,101689.44
2022-12-19T00:52:48.807Z,101648.91
2022-12-19T00:57:51.557Z,101692.91
2022-12-19T01:02:58.722Z,101681.56
2022-12-19T01:08:01.389Z,101697.91
2022-12-19T01:13:06.274Z,101690.78
2022-12-19T01:18:12.023Z,101638.06
2022-12-19T01:23:15.777Z,101664.56
2022-12-19T01:28:20.113Z,101675.25
2022-12-19T01:33:26.323Z,101664.00
2022-12-19T01:38:29.675Z,101639.44
2022-12-19T01:43:34.918Z,101619.25
2022-12-19T01:48:43.778Z,101588.00
2022-12-19T01:53:50.938Z,101565.31
2022-12-19T01:59:06.087Z,101617.91
2022-12-19T02:04:14.415Z,101583.84
2022-12-19T02:09:17.575Z,101578.47
2022-12-19T02:14:20.895Z,101567.47
2022-12-19T02:19:53.693Z,101542.44
2022-12-19T02:25:22.047Z,101545.09
2022-12-19T02:30:54.024Z,101531.97
2022-12-19T02:36:02.828Z,101523.06
2022-12-19T02:41:09.617Z,101424.47
2022-12-19T02:46:14.654Z,101531.81
2022-12-19T02:51:18.533Z,101531.59
2022-12-19T02:56:40.958Z,101516.72
2022-12-19T03:01:48.727Z,101534.03
2022-12-19T03:06:56.323Z,101506.22
2022-12-19T03:12:07.546Z,101533.97
2022-12-19T03:17:12.175Z,101495.53
2022-12-19T03:22:15.035Z,101507.88
2022-12-19T03:27:23.682Z,101453.38
2022-12-19T03:32:30.430Z,101504.09
2022-12-19T03:37:38.178Z,101476.38
2022-12-19T03:42:59.762Z,101502.06
2022-12-19T03:48:08.648Z,101492.41
2022-12-19T03:53:22.668Z,101489.91
2022-12-19T03:58:31.472Z,101487.41
2022-12-19T04:03:37.072Z,101470.91
2022-12-19T04:08:39.984Z,101460.69
2022-12-19T04:13:48.538Z,101471.72
2022-12-19T04:18:59.059Z,101475.19
2022-12-19T04:24:06.815Z,101467.13
2022-12-19T04:29:12.540Z,101479.34
2022-12-19T04:34:20.626Z,101456.63
2022-12-19T04:39:23.842Z,101468.16
2022-12-19T04:44:27.413Z,101472.72
2022-12-19T04:49:31.730Z,101469.72
2022-12-19T04:54:34.526Z,101472.63
2022-12-19T04:59:37.645Z,101438.16
2022-12-19T05:04:41.613Z,101446.94
2022-12-19T05:09:44.187Z,101439.16
2022-12-19T05:14:47.342Z,101424.06
2022-12-19T05:19:51.224Z,101430.06
2022-12-19T05:24:53.825Z,101420.00
2022-12-19T05:29:57.070Z,101430.28
2022-12-19T05:35:01.202Z,101436.22
2022-12-19T05:40:03.820Z,101433.56
2022-12-19T05:45:07.240Z,101424.94
2022-12-19T05:50:11.511Z,101424.03
2022-12-19T05:55:14.504Z,101442.06
2022-12-19T06:00:17.429Z,101437.19
2022-12-19T06:05:21.339Z,101426.53
2022-12-19T06:10:24.111Z,101428.25
2022-12-19T06:15:27.291Z,101432.31
2022-12-19T06:20:31.211Z,101426.19
2022-12-19T06:25:34.984Z,101424.22
2022-12-19T06:30:37.744Z,101410.28
2022-12-19T06:35:42.314Z,101425.44
2022-12-19T06:41:03.607Z,101422.16
2022-12-19T06:46:07.427Z,101413.28
2022-12-19T06:51:11.832Z,101425.81
2022-12-19T06:56:16.348Z,101431.25
2022-12-19T07:01:19.679Z,101395.38
2022-12-19T07:06:24.491Z,101425.94
2022-12-19T07:11:27.072Z,101431.25
2022-12-19T07:16:29.869Z,101434.41
2022-12-19T07:21:34.113Z,101442.28
2022-12-19T07:26:36.846Z,101446.75
2022-12-19T07:31:40.573Z,101442.31
2022-12-19T07:36:44.521Z,101457.75
2022-12-19T07:41:47.344Z,101463.75
2022-12-19T07:46:50.005Z,101454.13
2022-12-19T07:51:53.941Z,101454.88
2022-12-19T07:56:56.502Z,101461.69
2022-12-19T08:01:59.143Z,101465.97
2022-12-19T08:07:03.338Z,101454.31
2022-12-19T08:12:06.378Z,101459.41
2022-12-19T08:17:20.428Z,101458.50
2022-12-19T08:22:24.878Z,101471.66
2022-12-19T08:27:28.183Z,101470.41
2022-12-19T08:32:30.885Z,101466.03
2022-12-19T08:37:34.780Z,101446.25
2022-12-19T08:42:38.148Z,101468.41
2022-12-19T08:47:40.711Z,101457.50
2022-12-19T08:52:44.615Z,101472.19
2022-12-19T08:57:48.193Z,101475.53
2022-12-19T09:02:51.689Z,101473.75
2022-12-19T09:07:55.685Z,101474.50
2022-12-19T09:12:58.725Z,101480.47
2022-12-19T09:18:01.286Z,101480.19
2022-12-19T09:23:05.545Z,101477.47
2022-12-19T09:33:35.513Z,101481.50
2022-12-19T09:38:44.206Z,101470.69
2022-12-19T09:43:59.564Z,101472.66
2022-12-19T09:49:12.962Z,101495.38
2022-12-19T09:54:23.362Z,101494.63
2022-12-19T09:59:33.194Z,101482.69
2022-12-19T10:04:49.242Z,101497.78
2022-12-19T10:11:59.380Z,101490.66
2022-12-19T10:15:26.870Z,101486.28
2022-12-19T10:20:31.291Z,101486.78
2022-12-19T10:26:00.673Z,101474.69
2022-12-19T10:31:20.705Z,101467.41
2022-12-19T10:36:48.700Z,101468.97
2022-12-19T10:41:53.931Z,101466.31
2022-12-19T10:46:56.554Z,101452.53
2022-12-19T10:52:01.104Z,101453.16
2022-12-19T10:57:20.371Z,101440.75
2022-12-19T11:02:34.767Z,101438.97
2022-12-19T11:07:37.476Z,101438.78
2022-12-19T11:19:17.683Z,101426.56
2022-12-19T11:27:13.903Z,101436.16
2022-12-19T11:29:39.997Z,101449.47
2022-12-19T11:31:51.351Z,101449.59
2022-12-19T11:34:50.687Z,101408.03
2022-12-19T11:39:59.548Z,101442.06
2022-12-19T11:45:12.674Z,101445.34
2022-12-19T11:50:18.927Z,101441.25
2022-12-19T11:55:25.583Z,101434.22
2022-12-19T12:00:31.128Z,101434.78
2022-12-19T12:05:56.456Z,101430.88
2022-12-19T12:15:19.058Z,101413.94
2022-12-19T12:31:10.767Z,101434.09
2022-12-19T12:32:02.267Z,101420.09
2022-12-19T12:32:03.522Z,101394.53
2022-12-19T12:35:32.949Z,101402.91
2022-12-19T12:39:03.401Z,101385.94
2022-12-19T12:44:10.043Z,101370.03
2022-12-19T12:49:32.933Z,101380.38
2022-12-19T12:54:38.898Z,101379.16
2022-12-19T12:59:46.388Z,101384.00
2022-12-19T13:04:58.756Z,101381.22
2022-12-19T13:10:19.339Z,101374.88
2022-12-19T13:15:37.156Z,101371.22
2022-12-19T13:20:45.081Z,101356.66
2022-12-19T13:25:51.385Z,101349.03
2022-12-19T13:31:22.847Z,101348.69
2022-12-19T13:39:54.508Z,101342.38
2022-12-19T13:42:46.068Z,101346.72
2022-12-19T13:47:51.854Z,101341.56
2022-12-19T13:52:55.142Z,101297.47
2022-12-19T13:57:59.042Z,101319.00
2022-12-19T14:03:02.993Z,101313.00
2022-12-19T14:08:08.332Z,101281.03
2022-12-19T14:13:58.131Z,101299.38
2022-12-19T14:19:00.373Z,101295.44
2022-12-19T14:24:10.480Z,101299.22
2022-12-19T14:29:17.911Z,101291.31
2022-12-19T14:35:05.055Z,101282.72
2022-12-19T14:40:08.539Z,101262.63
2022-12-19T14:52:08.673Z,101274.34
2022-12-19T14:54:04.907Z,101267.47
2022-12-19T14:57:01.971Z,101263.00
2022-12-19T15:02:27.708Z,101264.94
2022-12-19T15:07:35.604Z,101259.69
2022-12-19T15:14:47.192Z,101240.59
2022-12-19T15:18:39.926Z,101243.88
2022-12-19T15:23:44.731Z,101249.97
2022-12-19T15:28:49.991Z,101249.00
2022-12-19T15:34:32.373Z,101242.88
2022-12-19T15:39:17.638Z,101251.63
2022-12-19T15:44:31.509Z,101243.34
2022-12-19T15:49:35.879Z,101247.00
2022-12-19T15:54:53.864Z,101248.41
2022-12-19T15:59:58.158Z,101258.78
2022-12-19T16:05:04.415Z,101254.97
2022-12-19T16:10:10.549Z,101250.72
2022-12-19T16:15:21.068Z,101264.09
2022-12-19T16:20:27.615Z,101266.00
2022-12-19T16:25:35.860Z,101276.34
2022-12-19T16:30:40.396Z,101276.34
2022-12-19T16:41:15.671Z,101298.13
2022-12-19T16:46:21.619Z,101297.00
2022-12-19T16:51:28.957Z,101325.97
2022-12-19T16:56:35.301Z,101319.94
2022-12-19T17:01:37.980Z,101326.75
2022-12-19T17:06:42.264Z,101286.56
2022-12-19T17:11:48.525Z,101316.28
2022-12-19T17:16:55.143Z,101316.84
2022-12-19T17:21:59.323Z,101278.97
2022-12-19T17:27:01.999Z,101324.66
2022-12-19T17:32:06.837Z,101331.69
2022-12-19T17:37:17.354Z,101330.16
2022-12-19T17:42:23.355Z,101321.41
2022-12-19T17:47:27.391Z,101322.03
2022-12-19T17:52:36.670Z,101316.25
2022-12-19T17:57:39.837Z,101334.50
2022-12-19T18:02:45.260Z,101346.41
2022-12-19T18:07:50.657Z,101314.78
2022-12-19T18:12:54.157Z,101325.88
2022-12-19T18:18:00.510Z,101316.00
2022-12-19T18:23:18.664Z,101307.47
2022-12-19T18:28:23.140Z,101323.06
2022-12-19T18:33:26.375Z,101300.53
2022-12-19T18:38:30.334Z,101326.63
2022-12-19T18:43:33.933Z,101326.56
2022-12-19T18:48:38.047Z,101281.31
2022-12-19T18:53:43.393Z,101305.25
2022-12-19T18:58:47.165Z,101320.13
2022-12-19T19:03:55.227Z,101291.69
2022-12-19T19:09:00.360Z,101296.13
2022-12-19T19:14:23.129Z,101312.78
2022-12-19T19:19:26.024Z,101300.16
2022-12-19T19:24:30.827Z,101313.56
2022-12-19T19:29:34.210Z,101319.75
2022-12-19T19:34:41.369Z,101323.94
2022-12-19T19:39:48.284Z,101333.50
2022-12-19T19:44:51.759Z,101328.06
2022-12-19T19:49:56.131Z,101327.94
2022-12-19T19:55:00.416Z,101327.84
2022-12-19T20:00:04.000Z,101322.44
2022-12-19T20:05:17.413Z,101321.41
2022-12-19T20:10:21.358Z,101316.13
2022-12-19T20:15:24.446Z,101327.41
2022-12-19T20:20:28.450Z,101306.06
2022-12-19T20:25:32.842Z,101326.72
2022-12-19T20:30:37.709Z,101329.97
2022-12-19T20:35:40.893Z,101325.09
2022-12-19T20:40:46.923Z,101318.19
2022-12-19T20:45:50.733Z,101336.03
2022-12-19T20:50:56.697Z,101326.13
2022-12-19T20:56:02.922Z,101321.28
2022-12-19T21:01:08.989Z,101279.59
2022-12-19T21:06:13.469Z,101322.59
2022-12-19T21:11:17.387Z,101318.03
2022-12-19T21:16:23.264Z,101325.53
2022-12-19T21:21:28.490Z,101308.69
2022-12-19T21:26:33.884Z,101314.66
2022-12-19T21:31:36.555Z,101309.13
2022-12-19T21:36:39.523Z,101293.66
2022-12-19T21:41:43.582Z,101308.97
2022-12-19T21:46:48.082Z,101308.91
2022-12-19T21:51:50.695Z,101318.00
2022-12-19T21:56:54.680Z,101312.84
2022-12-19T22:01:57.764Z,101308.91
2022-12-19T22:07:00.648Z,101311.38
2022-12-19T22:12:04.848Z,101312.31
2022-12-19T22:17:07.506Z,101308.72
2022-12-19T22:22:10.491Z,101317.50
2022-12-19T22:27:14.451Z,101321.88
2022-12-19T22:32:17.626Z,101308.72
2022-12-19T22:37:20.187Z,101297.97
2022-12-19T22:42:24.097Z,101299.00
2022-12-19T22:47:26.727Z,101307.03
2022-12-19T22:52:29.302Z,101265.78
2022-12-19T22:57:33.539Z,101281.28
2022-12-19T23:02:39.548Z,101266.78
2022-12-19T23:07:42.298Z,101271.31
2022-12-19T23:12:46.739Z,101257.94
2022-12-19T23:17:49.288Z,101246.47
2022-12-19T23:22:51.867Z,101248.22
2022-12-19T23:27:55.802Z,101242.00
2022-12-19T23:32:58.333Z,101242.63
2022-12-19T23:38:00.896Z,101246.22
2022-12-19T23:43:05.034Z,101253.03
2022-12-19T23:48:08.110Z,101256.34
2022-12-19T23:53:10.852Z,101261.53
2022-12-19T23:58:20.756Z,101247.44
